首页
METAR-TAF:

METAR-TAF

机场 :

McEntire Joint National Guard Base

Eastover, 南卡罗来纳州, 美国

纬度: 33-55N, 经度: 080-48W, 海拔: 77米

当前天气观测

该预报发布于1小时和7分钟前的15:56 UTC
风速5节,风向
温度 26°C
湿度 45%
气压 1020 hPa
能見度: 16.1公里
少量云层高于25000英尺

METAR: KMMT 231556Z 19005KT 10SM FEW250 26/13 A3011 RMK AO2A FU N RWY 32 SLP198 T02590127 $

时间: 13:03 (17:03 UTC)

预报

该预报发布于2小时和3分钟前的15:00 UTC
预报有效从23日的 15点(UTC)到 24日的 21点(UTC)
风速6节,风向南转西南
能见度10公里或以上
少量云层高于25000英尺
成为
从 24日的 03点(UTC)到 24日的 04点(UTC)
风速6节,风向南转西南
能见度10公里或以上
少量云层高于15000英尺
散云层高于25000英尺
成为
从 24日的 16点(UTC)到 24日的 17点(UTC)
风速10节,风向西,有时为15节阵风
能见度10公里或以上
天空无云

TAF: KMMT 231500Z 2315/2421 20006KT 9999 FEW250 QNH2999INS BECMG 2403/2404 21006KT 9999 FEW150 SCT250 QNH2997INS BECMG 2416/2417 27010G15KT 9999 SKC QNH2990INS TX29/2319Z TN16/2411Z

超过4000个机场的气象观测和天气预报(METAR&TAF报告)。

可查询的气象台以黄色和红色小点在地图上表示。

将鼠标移到小点上方,可查看气象台名称。

然后点击查看天气观测和预报。

如需切换地图:点击带黑十字的绿色按钮放大地图;点击带横线的绿色按钮缩小地图;或者点击绿色箭头查看邻近地区的地图。


METAR-TAF: